createdAt,value
2023-02-12T00:01:58.576Z,28.02
2023-02-12T00:04:25.185Z,28.03
2023-02-12T00:06:51.784Z,27.63
2023-02-12T00:09:18.365Z,27.92
2023-02-12T00:11:44.919Z,28.00
2023-02-12T00:14:11.526Z,30.00
2023-02-12T00:16:38.347Z,32.03
2023-02-12T00:19:04.727Z,31.73
2023-02-12T00:21:31.353Z,26.33
2023-02-12T00:23:58.137Z,27.70
2023-02-12T00:26:25.071Z,28.65
2023-02-12T00:28:51.683Z,29.20
2023-02-12T00:31:25.187Z,30.60
2023-02-12T00:33:51.984Z,29.83
2023-02-12T00:36:21.088Z,30.55
2023-02-12T00:38:49.557Z,31.05
2023-02-12T00:41:16.318Z,30.83
2023-02-12T00:43:42.964Z,30.95
2023-02-12T00:46:10.166Z,33.72
2023-02-12T00:48:37.349Z,33.20
2023-02-12T00:51:04.224Z,31.98
2023-02-12T00:53:30.860Z,30.47
2023-02-12T00:55:57.992Z,32.08
2023-02-12T00:58:24.429Z,32.90
2023-02-12T01:00:51.172Z,30.48
2023-02-12T01:03:17.961Z,31.85
2023-02-12T01:05:44.637Z,32.43
2023-02-12T01:08:13.661Z,32.50
2023-02-12T01:10:41.014Z,31.48
2023-02-12T01:13:07.834Z,35.10
2023-02-12T01:15:34.232Z,35.15
2023-02-12T01:18:00.800Z,30.20
2023-02-12T01:20:27.489Z,31.50
2023-02-12T01:22:54.182Z,30.65
2023-02-12T01:25:20.944Z,33.33
2023-02-12T01:27:48.403Z,35.92
2023-02-12T01:30:15.799Z,33.17
2023-02-12T01:32:43.126Z,35.85
2023-02-12T01:35:10.741Z,34.63
2023-02-12T01:37:38.218Z,36.05
2023-02-12T01:40:08.159Z,34.83
2023-02-12T01:42:34.842Z,36.60
2023-02-12T01:45:13.348Z,38.70
2023-02-12T01:47:44.793Z,35.67
2023-02-12T01:50:16.113Z,36.45
2023-02-12T01:52:48.349Z,36.80
2023-02-12T01:55:15.830Z,36.43
2023-02-12T01:57:46.160Z,36.25
2023-02-12T02:00:20.266Z,36.15
2023-02-12T02:02:51.417Z,37.58
2023-02-12T02:05:25.059Z,33.45
2023-02-12T02:07:53.581Z,36.63
2023-02-12T02:10:20.371Z,35.70
2023-02-12T02:13:05.393Z,36.85
2023-02-12T02:15:33.468Z,36.58
2023-02-12T02:18:11.936Z,34.83
2023-02-12T02:20:54.658Z,35.17
2023-02-12T02:23:59.352Z,36.58
2023-02-12T02:26:41.178Z,37.17
2023-02-12T02:29:17.968Z,34.35
2023-02-12T02:32:03.158Z,36.30
2023-02-12T02:35:03.702Z,37.80
2023-02-12T02:37:40.941Z,37.20
2023-02-12T02:40:24.879Z,37.22
2023-02-12T02:43:06.528Z,41.05
2023-02-12T02:45:48.234Z,43.35
2023-02-12T02:48:21.960Z,41.43
2023-02-12T02:50:56.161Z,42.08
2023-02-12T02:53:31.670Z,40.60
2023-02-12T02:56:02.083Z,39.85
2023-02-12T02:58:36.424Z,41.53
2023-02-12T03:01:06.186Z,42.00
2023-02-12T03:03:38.118Z,42.78
2023-02-12T03:06:10.417Z,42.80
2023-02-12T03:08:43.897Z,46.42
2023-02-12T03:11:18.317Z,43.63
2023-02-12T03:14:03.794Z,48.03
2023-02-12T03:17:00.003Z,45.90
2023-02-12T03:19:30.810Z,44.63
2023-02-12T03:22:03.446Z,47.00
2023-02-12T03:24:36.399Z,42.63
2023-02-12T03:27:11.339Z,42.00
2023-02-12T03:29:38.179Z,42.22
2023-02-12T03:32:10.125Z,42.35
2023-02-12T03:34:50.544Z,41.80
2023-02-12T03:37:33.968Z,43.85
2023-02-12T03:40:20.738Z,45.80
2023-02-12T03:42:58.003Z,42.60
2023-02-12T03:45:47.523Z,41.35
2023-02-12T03:48:16.999Z,42.55
2023-02-12T03:50:54.025Z,45.38
2023-02-12T03:53:21.110Z,45.40
2023-02-12T03:55:52.688Z,43.50
2023-02-12T03:58:24.858Z,45.47
2023-02-12T04:00:52.118Z,46.85
2023-02-12T04:03:18.981Z,47.13
2023-02-12T04:05:45.590Z,48.87
2023-02-12T04:08:13.225Z,46.22
2023-02-12T04:11:01.502Z,47.67
2023-02-12T04:13:50.253Z,50.35
2023-02-12T04:16:29.872Z,53.17
2023-02-12T04:18:57.006Z,48.77
2023-02-12T04:22:03.350Z,53.60
2023-02-12T04:24:38.945Z,51.83
2023-02-12T04:27:17.260Z,49.67
2023-02-12T04:29:54.791Z,56.85
2023-02-12T04:32:37.900Z,51.87
2023-02-12T04:35:22.799Z,57.10
2023-02-12T04:37:52.183Z,58.20
2023-02-12T04:40:20.561Z,53.72
2023-02-12T04:42:49.488Z,55.15
2023-02-12T04:45:29.913Z,53.93
2023-02-12T04:47:56.857Z,53.47
2023-02-12T04:50:23.618Z,54.50
2023-02-12T04:52:50.039Z,58.58
2023-02-12T04:55:17.048Z,58.08
2023-02-12T04:57:43.667Z,54.20
2023-02-12T05:00:13.546Z,54.28
2023-02-12T05:02:40.287Z,54.60
2023-02-12T05:05:07.319Z,54.95
2023-02-12T05:07:33.916Z,52.72
2023-02-12T05:10:00.600Z,54.80
2023-02-12T05:12:27.165Z,54.75
2023-02-12T05:14:53.556Z,57.83
2023-02-12T05:17:22.976Z,56.38
2023-02-12T05:19:49.589Z,51.05
2023-02-12T05:22:16.041Z,57.37
2023-02-12T05:24:42.770Z,56.78
2023-02-12T05:27:09.468Z,52.75
2023-02-12T05:29:36.836Z,59.47
2023-02-12T05:32:04.167Z,58.10
2023-02-12T05:34:30.861Z,54.50
2023-02-12T05:36:57.413Z,58.22
2023-02-12T05:39:23.757Z,58.83
2023-02-12T05:41:50.330Z,62.70
2023-02-12T05:44:16.950Z,65.57
2023-02-12T05:46:43.893Z,67.37
2023-02-12T05:49:11.129Z,58.28
2023-02-12T05:51:37.994Z,60.13
2023-02-12T05:54:07.508Z,68.47
2023-02-12T05:56:42.335Z,62.78
2023-02-12T05:59:15.169Z,65.63
2023-02-12T06:01:43.646Z,66.53
2023-02-12T06:04:19.156Z,61.75
2023-02-12T06:06:46.419Z,59.97
2023-02-12T06:09:14.187Z,64.68
2023-02-12T06:11:41.603Z,61.57
2023-02-12T06:14:11.304Z,61.75
2023-02-12T06:16:38.085Z,63.78
2023-02-12T06:19:09.777Z,68.95
2023-02-12T06:21:36.121Z,61.72
2023-02-12T06:24:02.733Z,63.00
2023-02-12T06:26:29.346Z,61.05
2023-02-12T06:28:55.968Z,65.93
2023-02-12T06:31:25.186Z,60.05
2023-02-12T06:33:52.451Z,61.67
2023-02-12T06:36:20.163Z,65.27
2023-02-12T06:38:47.136Z,69.15
2023-02-12T06:41:13.861Z,66.82
2023-02-12T06:43:40.705Z,69.55
2023-02-12T06:46:08.644Z,64.97
2023-02-12T06:48:35.472Z,68.43
2023-02-12T06:51:11.872Z,67.20
2023-02-12T06:53:38.526Z,70.25
2023-02-12T06:56:07.040Z,67.85
2023-02-12T06:58:33.685Z,66.22
2023-02-12T07:01:18.152Z,67.37
2023-02-12T07:03:48.612Z,66.30
2023-02-12T07:06:15.215Z,68.80
2023-02-12T07:08:41.811Z,68.85
2023-02-12T07:11:08.466Z,74.70
2023-02-12T07:13:35.432Z,67.77
2023-02-12T07:16:09.803Z,64.47
2023-02-12T07:18:37.356Z,65.70
2023-02-12T07:21:05.491Z,63.45
2023-02-12T07:23:32.690Z,68.32
2023-02-12T07:26:01.863Z,74.47
2023-02-12T07:28:28.322Z,69.65
2023-02-12T07:30:54.835Z,66.97
2023-02-12T07:33:21.377Z,68.03
2023-02-12T07:35:47.926Z,69.00
2023-02-12T07:38:14.521Z,61.57
2023-02-12T07:40:41.158Z,71.00
2023-02-12T07:43:07.779Z,67.65
2023-02-12T07:45:34.158Z,79.63
2023-02-12T07:48:00.732Z,72.22
2023-02-12T07:50:27.352Z,75.00
2023-02-12T07:52:53.927Z,76.95
2023-02-12T07:55:20.540Z,82.00
2023-02-12T07:57:46.901Z,75.18
2023-02-12T08:00:13.926Z,72.15
2023-02-12T08:02:40.929Z,70.00
2023-02-12T08:05:07.936Z,67.88
2023-02-12T08:07:34.593Z,68.72
2023-02-12T08:10:00.896Z,66.75
2023-02-12T08:12:27.225Z,67.65
2023-02-12T08:14:54.565Z,75.70
2023-02-12T08:17:21.172Z,68.72
2023-02-12T08:19:47.724Z,71.47
2023-02-12T08:22:14.417Z,73.95
2023-02-12T08:24:41.001Z,71.38
2023-02-12T08:27:07.459Z,70.13
2023-02-12T08:29:34.034Z,73.28
2023-02-12T08:32:03.110Z,69.78
2023-02-12T08:34:33.222Z,66.05
2023-02-12T08:37:00.858Z,74.95
2023-02-12T08:39:30.195Z,83.27
2023-02-12T08:41:58.145Z,82.63
2023-02-12T08:44:26.498Z,90.00
2023-02-12T08:46:53.819Z,90.45
2023-02-12T08:49:23.134Z,102.22
2023-02-12T08:51:52.108Z,116.40
2023-02-12T08:54:24.000Z,127.50
2023-02-12T08:56:50.947Z,106.03
2023-02-12T08:59:17.922Z,115.20
2023-02-12T09:01:45.131Z,112.22
2023-02-12T09:04:17.704Z,103.60
2023-02-12T09:06:45.477Z,113.80
2023-02-12T09:09:13.474Z,110.30
2023-02-12T09:11:40.499Z,92.45
2023-02-12T09:14:11.140Z,95.68
2023-02-12T09:16:40.480Z,101.03
2023-02-12T09:19:07.572Z,108.95
2023-02-12T09:21:34.116Z,96.95
2023-02-12T09:24:02.142Z,99.07
2023-02-12T09:26:28.767Z,93.75
2023-02-12T09:28:55.289Z,101.27
2023-02-12T09:31:27.132Z,99.70
2023-02-12T09:33:56.248Z,90.90
2023-02-12T09:36:22.602Z,90.68
2023-02-12T09:38:49.984Z,86.25
2023-02-12T09:41:34.629Z,82.27
2023-02-12T09:44:16.763Z,82.53
2023-02-12T09:46:48.425Z,80.22
2023-02-12T09:49:24.224Z,79.57
2023-02-12T09:51:54.934Z,79.65
2023-02-12T09:54:26.228Z,70.70
2023-02-12T09:57:00.505Z,76.78
2023-02-12T09:59:27.043Z,60.28
2023-02-12T10:01:53.705Z,55.00
2023-02-12T10:04:20.624Z,47.10
2023-02-12T10:06:56.789Z,49.33
2023-02-12T10:09:35.077Z,49.25
2023-02-12T10:12:12.404Z,47.10
2023-02-12T10:14:45.836Z,46.42
2023-02-12T10:17:45.233Z,52.67
2023-02-12T10:20:59.959Z,50.43
2023-02-12T10:23:48.634Z,51.10
2023-02-12T10:26:29.841Z,53.28
2023-02-12T10:29:05.633Z,46.67
2023-02-12T10:31:37.314Z,39.88
2023-02-12T10:34:22.850Z,38.03
2023-02-12T10:36:54.283Z,41.85
2023-02-12T10:39:24.390Z,36.15
2023-02-12T10:42:11.708Z,37.72
2023-02-12T10:44:38.317Z,40.03
2023-02-12T10:47:05.027Z,40.03
2023-02-12T10:49:33.106Z,37.50
2023-02-12T10:52:05.605Z,35.03
2023-02-12T10:54:42.159Z,36.25
2023-02-12T10:57:17.216Z,35.33
2023-02-12T10:59:45.740Z,32.07
2023-02-12T11:02:38.550Z,36.22
2023-02-12T11:05:25.350Z,36.08
2023-02-12T11:07:52.290Z,29.98
2023-02-12T11:10:31.962Z,32.53
2023-02-12T11:13:02.203Z,52.73
2023-02-12T11:15:51.737Z,36.38
2023-02-12T11:18:27.836Z,56.30
2023-02-12T11:21:01.720Z,37.28
2023-02-12T11:23:34.389Z,34.80
2023-02-12T11:26:19.169Z,33.87
2023-02-12T11:28:57.566Z,33.17
2023-02-12T11:31:29.200Z,17.83
2023-02-12T11:34:14.107Z,12.25
2023-02-12T11:36:45.807Z,13.98
2023-02-12T11:39:21.471Z,14.10
2023-02-12T11:41:53.280Z,16.35
2023-02-12T11:44:24.604Z,15.82
2023-02-12T11:46:58.714Z,19.63
2023-02-12T11:49:39.440Z,23.55
2023-02-12T11:52:06.932Z,24.27
2023-02-12T11:54:42.881Z,24.10
2023-02-12T11:57:43.754Z,24.00
2023-02-12T12:00:37.394Z,24.30
2023-02-12T12:03:15.259Z,26.45
2023-02-12T12:05:48.569Z,23.17
2023-02-12T12:08:29.730Z,23.02
2023-02-12T12:11:15.385Z,24.55
2023-02-12T12:13:51.096Z,24.30
2023-02-12T12:16:58.167Z,22.27
2023-02-12T12:19:54.197Z,25.43
2023-02-12T12:22:45.802Z,25.70
2023-02-12T12:25:27.318Z,24.92
2023-02-12T12:28:08.316Z,23.52
2023-02-12T12:30:43.632Z,23.58
2023-02-12T12:33:35.299Z,24.13
2023-02-12T12:36:18.657Z,27.10
2023-02-12T12:39:10.390Z,24.33
2023-02-12T12:41:59.048Z,23.25
2023-02-12T12:44:52.677Z,22.85
2023-02-12T12:48:04.124Z,23.90
2023-02-12T12:50:58.696Z,25.60
2023-02-12T12:53:46.883Z,26.45
2023-02-12T12:56:36.130Z,25.95
2023-02-12T12:59:30.542Z,25.00
2023-02-12T13:02:35.069Z,24.60
2023-02-12T13:05:19.328Z,28.88
2023-02-12T13:08:08.746Z,25.05
2023-02-12T13:10:47.428Z,28.48
2023-02-12T13:13:26.522Z,25.38
2023-02-12T13:16:11.343Z,29.10
2023-02-12T13:18:52.746Z,31.92
2023-02-12T13:21:28.660Z,32.30
2023-02-12T13:24:13.855Z,31.77
2023-02-12T13:26:55.128Z,30.45
2023-02-12T13:29:21.766Z,31.47
2023-02-12T13:32:14.777Z,32.83
2023-02-12T13:34:44.126Z,32.13
2023-02-12T13:37:17.709Z,32.50
2023-02-12T13:39:47.933Z,30.42
2023-02-12T13:42:26.620Z,29.93
2023-02-12T13:45:16.612Z,33.03
2023-02-12T13:48:03.952Z,31.23
2023-02-12T13:50:41.924Z,29.23
2023-02-12T13:53:27.249Z,31.23
2023-02-12T13:56:10.100Z,28.37
2023-02-12T13:58:41.938Z,30.55
2023-02-12T14:01:30.820Z,30.05
2023-02-12T14:04:14.849Z,31.35
2023-02-12T14:06:59.761Z,33.83
2023-02-12T14:09:50.235Z,37.50
2023-02-12T14:12:30.824Z,34.03
2023-02-12T14:15:31.371Z,35.70
2023-02-12T14:18:29.607Z,31.52
2023-02-12T14:21:17.242Z,36.42
2023-02-12T14:23:46.184Z,39.93
2023-02-12T14:26:15.087Z,35.20
2023-02-12T14:28:49.118Z,76.60
2023-02-12T14:31:18.781Z,41.80
2023-02-12T14:33:53.542Z,36.30
2023-02-12T14:36:42.838Z,36.77
2023-02-12T14:39:22.458Z,36.42
2023-02-12T14:41:57.393Z,35.85
2023-02-12T14:44:23.962Z,36.03
2023-02-12T14:46:52.458Z,35.83
2023-02-12T14:49:26.970Z,42.43
2023-02-12T14:52:02.459Z,37.20
2023-02-12T14:54:37.203Z,35.90
2023-02-12T14:57:09.613Z,36.75
2023-02-12T14:59:40.851Z,39.22
2023-02-12T15:02:14.280Z,36.07
2023-02-12T15:04:45.499Z,37.03
2023-02-12T15:07:17.554Z,34.47
2023-02-12T15:09:52.503Z,31.08
2023-02-12T15:12:26.619Z,31.70
2023-02-12T15:15:05.799Z,29.50
2023-02-12T15:17:39.560Z,29.08
2023-02-12T15:20:32.356Z,30.17
2023-02-12T15:22:58.877Z,31.30
2023-02-12T15:25:28.534Z,28.15
2023-02-12T15:27:59.647Z,28.03
2023-02-12T15:30:29.490Z,28.48
2023-02-12T15:32:58.412Z,28.25
2023-02-12T15:35:44.069Z,28.90
2023-02-12T15:38:20.742Z,32.17
2023-02-12T15:40:55.621Z,30.07
2023-02-12T15:43:22.195Z,30.70
2023-02-12T15:45:52.656Z,30.88
2023-02-12T15:48:21.728Z,31.60
2023-02-12T15:50:58.284Z,30.17
2023-02-12T15:53:28.228Z,28.57
2023-02-12T15:55:55.374Z,27.83
2023-02-12T15:58:48.428Z,30.00
2023-02-12T16:01:20.988Z,29.13
2023-02-12T16:03:59.363Z,30.48
2023-02-12T16:06:28.039Z,30.57
2023-02-12T16:09:16.703Z,30.35
2023-02-12T16:11:45.448Z,28.75
2023-02-12T16:14:26.249Z,30.33
2023-02-12T16:16:55.116Z,30.25
2023-02-12T16:19:29.963Z,31.23
2023-02-12T16:22:08.352Z,29.35
2023-02-12T16:24:40.506Z,31.80
2023-02-12T16:27:24.671Z,31.13
2023-02-12T16:30:04.272Z,32.10
2023-02-12T16:32:41.716Z,31.67
2023-02-12T16:35:11.214Z,34.05
2023-02-12T16:37:37.526Z,34.47
2023-02-12T16:40:13.194Z,32.30
2023-02-12T16:42:56.466Z,33.13
2023-02-12T16:45:29.921Z,33.47
2023-02-12T16:48:23.511Z,35.05
2023-02-12T16:50:57.984Z,36.65
2023-02-12T16:53:24.269Z,36.17
2023-02-12T16:55:51.224Z,32.33
2023-02-12T16:58:17.927Z,32.47
2023-02-12T17:00:44.913Z,35.70
2023-02-12T17:03:13.753Z,33.67
2023-02-12T17:05:42.818Z,35.33
2023-02-12T17:08:23.335Z,34.63
2023-02-12T17:10:50.119Z,31.30
2023-02-12T17:13:17.862Z,33.22
2023-02-12T17:16:01.919Z,35.20
2023-02-12T17:18:28.722Z,38.03
2023-02-12T17:20:59.445Z,36.00
2023-02-12T17:23:26.758Z,36.53
2023-02-12T17:25:53.209Z,40.50
2023-02-12T17:28:19.971Z,37.10
2023-02-12T17:30:46.686Z,38.30
2023-02-12T17:33:13.271Z,37.47
2023-02-12T17:35:40.508Z,38.80
2023-02-12T17:38:07.651Z,37.83
2023-02-12T17:40:38.683Z,39.47
2023-02-12T17:43:06.096Z,40.60
2023-02-12T17:45:32.967Z,41.28
2023-02-12T17:47:59.519Z,41.70
2023-02-12T17:50:26.241Z,41.13
2023-02-12T17:52:52.830Z,42.88
2023-02-12T17:55:19.491Z,44.85
2023-02-12T17:57:46.128Z,43.35
2023-02-12T18:00:13.461Z,44.67
2023-02-12T18:02:40.112Z,39.10
2023-02-12T18:05:07.169Z,45.85
2023-02-12T18:07:34.972Z,40.72
2023-02-12T18:10:01.817Z,44.20
2023-02-12T18:12:30.940Z,46.17
2023-02-12T18:14:58.913Z,50.97
2023-02-12T18:17:26.033Z,48.50
2023-02-12T18:19:53.084Z,43.25
2023-02-12T18:22:20.287Z,46.00
2023-02-12T18:24:47.182Z,47.00
2023-02-12T18:27:14.641Z,45.50
2023-02-12T18:29:41.585Z,45.78
2023-02-12T18:32:08.388Z,45.33
2023-02-12T18:34:34.966Z,41.80
2023-02-12T18:37:01.502Z,42.33
2023-02-12T18:39:29.037Z,43.20
2023-02-12T18:41:55.441Z,41.50
2023-02-12T18:44:22.973Z,44.05
2023-02-12T18:46:49.558Z,47.38
2023-02-12T18:49:16.541Z,45.57
2023-02-12T18:51:42.950Z,44.75
2023-02-12T18:54:13.333Z,42.67
2023-02-12T18:56:43.848Z,39.50
2023-02-12T18:59:12.980Z,45.33
2023-02-12T19:01:39.949Z,43.67
2023-02-12T19:04:09.393Z,41.25
2023-02-12T19:06:43.918Z,40.53
2023-02-12T19:09:11.856Z,41.28
2023-02-12T19:11:38.489Z,40.30
2023-02-12T19:14:05.152Z,39.07
2023-02-12T19:16:33.407Z,37.90
2023-02-12T19:19:01.437Z,40.83
2023-02-12T19:21:28.349Z,39.45
2023-02-12T19:24:00.622Z,42.75
2023-02-12T19:26:29.112Z,42.40
2023-02-12T19:28:57.036Z,45.28
2023-02-12T19:31:29.446Z,43.67
2023-02-12T19:34:02.492Z,40.13
2023-02-12T19:36:32.906Z,45.63
2023-02-12T19:38:59.791Z,46.07
2023-02-12T19:41:28.199Z,46.22
2023-02-12T19:44:00.682Z,47.70
2023-02-12T19:46:30.208Z,47.85
2023-02-12T19:49:02.097Z,43.95
2023-02-12T19:51:30.222Z,46.23
2023-02-12T19:54:02.196Z,41.28
2023-02-12T19:56:29.061Z,47.63
2023-02-12T19:58:57.696Z,43.33
2023-02-12T20:01:25.191Z,44.80
2023-02-12T20:03:51.638Z,44.57
2023-02-12T20:06:23.872Z,45.17
2023-02-12T20:08:53.646Z,45.90
2023-02-12T20:11:23.177Z,41.88
2023-02-12T20:13:50.206Z,40.72
2023-02-12T20:16:20.162Z,46.57
2023-02-12T20:18:52.462Z,47.00
2023-02-12T20:21:25.072Z,43.17
2023-02-12T20:23:52.004Z,43.03
2023-02-12T20:26:19.968Z,38.10
2023-02-12T20:28:47.220Z,41.38
2023-02-12T20:31:22.870Z,40.13
2023-02-12T20:33:54.636Z,43.50
2023-02-12T20:36:21.371Z,40.97
2023-02-12T20:38:52.432Z,38.78
2023-02-12T20:41:19.009Z,40.58
2023-02-12T20:43:45.702Z,38.90
2023-02-12T20:46:15.274Z,41.70
2023-02-12T20:48:42.087Z,38.70
2023-02-12T20:51:14.487Z,38.92
2023-02-12T20:53:42.411Z,39.28
2023-02-12T20:56:12.202Z,39.28
2023-02-12T20:58:40.309Z,40.97
2023-02-12T21:01:13.125Z,40.50
2023-02-12T21:03:40.324Z,44.33
2023-02-12T21:06:07.274Z,45.88
2023-02-12T21:08:36.896Z,43.00
2023-02-12T21:11:15.565Z,43.20
2023-02-12T21:13:53.920Z,44.03
2023-02-12T21:16:34.711Z,41.05
2023-02-12T21:19:01.264Z,42.40
2023-02-12T21:21:30.436Z,46.20
2023-02-12T21:23:59.317Z,46.17
2023-02-12T21:26:28.124Z,45.65
2023-02-12T21:28:57.181Z,45.95
2023-02-12T21:31:30.423Z,48.40
2023-02-12T21:33:59.023Z,47.55
2023-02-12T21:36:28.500Z,45.55
2023-02-12T21:38:55.685Z,48.95
2023-02-12T21:41:24.633Z,47.72
2023-02-12T21:43:57.860Z,45.95
2023-02-12T21:46:25.350Z,45.60
2023-02-12T21:48:52.264Z,46.63
2023-02-12T21:51:25.775Z,42.42
2023-02-12T21:53:54.430Z,44.40
2023-02-12T21:56:21.637Z,41.00
2023-02-12T21:58:49.130Z,45.15
2023-02-12T22:01:18.684Z,43.67
2023-02-12T22:03:45.249Z,44.15
2023-02-12T22:06:13.707Z,48.08
2023-02-12T22:08:40.492Z,40.63
2023-02-12T22:11:10.017Z,41.75
2023-02-12T22:13:37.617Z,42.55
2023-02-12T22:16:13.533Z,41.13
2023-02-12T22:18:41.210Z,38.80
2023-02-12T22:21:11.958Z,43.65
2023-02-12T22:23:40.503Z,45.28
2023-02-12T22:26:08.111Z,43.45
2023-02-12T22:28:39.080Z,49.80
2023-02-12T22:31:08.410Z,39.92
2023-02-12T22:33:35.170Z,44.25
2023-02-12T22:36:05.268Z,44.28
2023-02-12T22:38:39.203Z,43.72
2023-02-12T22:41:07.634Z,42.28
2023-02-12T22:43:35.955Z,46.58
2023-02-12T22:46:02.574Z,44.25
2023-02-12T22:48:29.584Z,43.72
2023-02-12T22:50:58.445Z,47.75
2023-02-12T22:53:26.004Z,65.55
2023-02-12T22:55:53.089Z,60.92
2023-02-12T22:58:19.772Z,61.47
2023-02-12T23:00:48.012Z,61.47
2023-02-12T23:03:14.659Z,91.10
2023-02-12T23:05:41.289Z,80.75
2023-02-12T23:08:07.856Z,66.80
2023-02-12T23:10:34.468Z,67.00
2023-02-12T23:13:03.055Z,64.68
2023-02-12T23:15:30.906Z,73.53
2023-02-12T23:17:57.626Z,73.70
2023-02-12T23:20:24.449Z,71.07
2023-02-12T23:22:51.076Z,180.17
2023-02-12T23:25:17.421Z,155.18
2023-02-12T23:27:43.953Z,283.55
2023-02-12T23:30:11.061Z,194.30
2023-02-12T23:32:37.642Z,120.78
2023-02-12T23:35:04.563Z,221.32
2023-02-12T23:37:30.846Z,144.32
2023-02-12T23:39:57.407Z,204.60
2023-02-12T23:42:24.021Z,121.47
2023-02-12T23:44:50.493Z,235.25
2023-02-12T23:47:17.077Z,127.00
2023-02-12T23:49:43.648Z,294.23
2023-02-12T23:52:10.234Z,289.83
2023-02-12T23:54:36.882Z,230.75
2023-02-12T23:57:03.494Z,320.85
2023-02-12T23:59:30.128Z,175.73
